sensor_id;sensor_type;location;lat;lon;timestamp;P1;durP1;ratioP1;P2;durP2;ratioP2
38463;SDS011;24243;51.956;5.902;2023-06-14T00:02:30;1.70;;;1.45;;
38463;SDS011;24243;51.956;5.902;2023-06-14T00:05:16;3.15;;;1.80;;
38463;SDS011;24243;51.956;5.902;2023-06-14T00:08:02;2.08;;;1.60;;
38463;SDS011;24243;51.956;5.902;2023-06-14T00:10:50;3.40;;;2.05;;
38463;SDS011;24243;51.956;5.902;2023-06-14T00:13:36;3.03;;;1.80;;
38463;SDS011;24243;51.956;5.902;2023-06-14T00:16:21;2.17;;;1.80;;
38463;SDS011;24243;51.956;5.902;2023-06-14T00:19:08;2.53;;;1.63;;
38463;SDS011;24243;51.956;5.902;2023-06-14T00:21:55;3.17;;;1.70;;
38463;SDS011;24243;51.956;5.902;2023-06-14T00:24:41;2.45;;;1.65;;
38463;SDS011;24243;51.956;5.902;2023-06-14T00:27:27;2.47;;;1.55;;
38463;SDS011;24243;51.956;5.902;2023-06-14T00:30:13;2.58;;;1.77;;
38463;SDS011;24243;51.956;5.902;2023-06-14T00:32:59;3.10;;;1.80;;
38463;SDS011;24243;51.956;5.902;2023-06-14T00:35:44;4.30;;;1.38;;
38463;SDS011;24243;51.956;5.902;2023-06-14T00:38:30;2.63;;;1.42;;
38463;SDS011;24243;51.956;5.902;2023-06-14T00:41:16;4.00;;;1.77;;
38463;SDS011;24243;51.956;5.902;2023-06-14T00:44:01;3.05;;;1.90;;
38463;SDS011;24243;51.956;5.902;2023-06-14T00:46:48;3.25;;;1.60;;
38463;SDS011;24243;51.956;5.902;2023-06-14T00:49:34;2.22;;;1.48;;
38463;SDS011;24243;51.956;5.902;2023-06-14T00:52:20;2.35;;;1.67;;
38463;SDS011;24243;51.956;5.902;2023-06-14T00:55:09;3.15;;;1.60;;
38463;SDS011;24243;51.956;5.902;2023-06-14T00:57:55;2.25;;;1.65;;
38463;SDS011;24243;51.956;5.902;2023-06-14T01:00:41;3.60;;;1.60;;
38463;SDS011;24243;51.956;5.902;2023-06-14T01:03:27;2.13;;;1.65;;
38463;SDS011;24243;51.956;5.902;2023-06-14T01:12:24;2.20;;;1.53;;
38463;SDS011;24243;51.956;5.902;2023-06-14T01:15:12;3.05;;;1.50;;
38463;SDS011;24243;51.956;5.902;2023-06-14T01:17:58;2.15;;;1.35;;
38463;SDS011;24243;51.956;5.902;2023-06-14T01:20:48;2.08;;;1.38;;
38463;SDS011;24243;51.956;5.902;2023-06-14T01:23:34;2.38;;;1.52;;
38463;SDS011;24243;51.956;5.902;2023-06-14T01:26:20;2.00;;;1.50;;
38463;SDS011;24243;51.956;5.902;2023-06-14T01:29:07;2.30;;;1.60;;
38463;SDS011;24243;51.956;5.902;2023-06-14T01:31:53;1.95;;;1.38;;
38463;SDS011;24243;51.956;5.902;2023-06-14T01:34:39;1.77;;;1.10;;
38463;SDS011;24243;51.956;5.902;2023-06-14T01:37:25;1.95;;;1.40;;
38463;SDS011;24243;51.956;5.902;2023-06-14T01:40:11;3.00;;;1.58;;
38463;SDS011;24243;51.956;5.902;2023-06-14T01:42:59;2.35;;;1.33;;
38463;SDS011;24243;51.956;5.902;2023-06-14T01:45:46;4.47;;;1.70;;
38463;SDS011;24243;51.956;5.902;2023-06-14T01:48:34;2.08;;;1.42;;
38463;SDS011;24243;51.956;5.902;2023-06-14T01:51:19;2.58;;;1.40;;
38463;SDS011;24243;51.956;5.902;2023-06-14T01:54:04;1.60;;;1.23;;
38463;SDS011;24243;51.956;5.902;2023-06-14T01:56:49;2.45;;;1.27;;
38463;SDS011;24243;51.956;5.902;2023-06-14T01:59:35;3.63;;;1.60;;
38463;SDS011;24243;51.956;5.902;2023-06-14T02:02:21;2.17;;;1.50;;
38463;SDS011;24243;51.956;5.902;2023-06-14T02:05:06;1.75;;;1.35;;
38463;SDS011;24243;51.956;5.902;2023-06-14T02:07:52;2.28;;;1.38;;
38463;SDS011;24243;51.956;5.902;2023-06-14T02:10:38;2.47;;;1.50;;
38463;SDS011;24243;51.956;5.902;2023-06-14T02:13:24;3.00;;;1.50;;
38463;SDS011;24243;51.956;5.902;2023-06-14T02:16:09;2.50;;;1.60;;
38463;SDS011;24243;51.956;5.902;2023-06-14T02:18:55;2.03;;;1.20;;
38463;SDS011;24243;51.956;5.902;2023-06-14T02:21:42;2.60;;;1.50;;
38463;SDS011;24243;51.956;5.902;2023-06-14T02:24:28;3.17;;;1.58;;
38463;SDS011;24243;51.956;5.902;2023-06-14T02:27:13;2.30;;;1.27;;
38463;SDS011;24243;51.956;5.902;2023-06-14T02:29:59;1.98;;;1.35;;
38463;SDS011;24243;51.956;5.902;2023-06-14T02:32:45;1.60;;;1.30;;
38463;SDS011;24243;51.956;5.902;2023-06-14T02:35:33;2.97;;;1.17;;
38463;SDS011;24243;51.956;5.902;2023-06-14T02:38:19;1.73;;;1.23;;
38463;SDS011;24243;51.956;5.902;2023-06-14T02:41:05;3.17;;;1.58;;
38463;SDS011;24243;51.956;5.902;2023-06-14T02:43:51;2.28;;;1.58;;
38463;SDS011;24243;51.956;5.902;2023-06-14T02:46:37;2.22;;;1.42;;
38463;SDS011;24243;51.956;5.902;2023-06-14T02:49:23;2.90;;;1.25;;
38463;SDS011;24243;51.956;5.902;2023-06-14T02:52:09;2.80;;;1.48;;
38463;SDS011;24243;51.956;5.902;2023-06-14T02:54:54;1.90;;;1.33;;
38463;SDS011;24243;51.956;5.902;2023-06-14T02:57:40;2.35;;;1.25;;
38463;SDS011;24243;51.956;5.902;2023-06-14T03:00:26;2.03;;;1.02;;
38463;SDS011;24243;51.956;5.902;2023-06-14T03:03:15;1.98;;;1.33;;
38463;SDS011;24243;51.956;5.902;2023-06-14T03:06:01;3.58;;;1.30;;
38463;SDS011;24243;51.956;5.902;2023-06-14T03:08:49;1.85;;;1.27;;
38463;SDS011;24243;51.956;5.902;2023-06-14T03:11:34;2.45;;;1.30;;
38463;SDS011;24243;51.956;5.902;2023-06-14T03:14:20;3.40;;;1.38;;
38463;SDS011;24243;51.956;5.902;2023-06-14T03:17:06;2.63;;;1.20;;
38463;SDS011;24243;51.956;5.902;2023-06-14T03:19:53;1.80;;;1.30;;
38463;SDS011;24243;51.956;5.902;2023-06-14T03:22:38;1.60;;;1.20;;
38463;SDS011;24243;51.956;5.902;2023-06-14T03:25:24;3.30;;;1.30;;
38463;SDS011;24243;51.956;5.902;2023-06-14T03:28:10;2.13;;;1.20;;
38463;SDS011;24243;51.956;5.902;2023-06-14T03:30:56;2.47;;;1.50;;
38463;SDS011;24243;51.956;5.902;2023-06-14T03:33:42;2.30;;;1.17;;
38463;SDS011;24243;51.956;5.902;2023-06-14T03:36:27;2.00;;;1.30;;
38463;SDS011;24243;51.956;5.902;2023-06-14T03:39:13;1.80;;;1.30;;
38463;SDS011;24243;51.956;5.902;2023-06-14T03:41:59;1.75;;;1.13;;
38463;SDS011;24243;51.956;5.902;2023-06-14T03:44:44;1.98;;;1.20;;
38463;SDS011;24243;51.956;5.902;2023-06-14T03:47:30;3.17;;;1.27;;
38463;SDS011;24243;51.956;5.902;2023-06-14T03:50:16;2.13;;;1.27;;
38463;SDS011;24243;51.956;5.902;2023-06-14T03:53:03;3.40;;;1.00;;
38463;SDS011;24243;51.956;5.902;2023-06-14T03:55:50;1.88;;;1.20;;
38463;SDS011;24243;51.956;5.902;2023-06-14T03:58:37;2.33;;;1.20;;
38463;SDS011;24243;51.956;5.902;2023-06-14T04:01:23;4.70;;;1.70;;
38463;SDS011;24243;51.956;5.902;2023-06-14T04:04:14;1.77;;;1.20;;
38463;SDS011;24243;51.956;5.902;2023-06-14T04:07:01;2.80;;;1.40;;
38463;SDS011;24243;51.956;5.902;2023-06-14T04:09:48;4.07;;;1.33;;
38463;SDS011;24243;51.956;5.902;2023-06-14T04:12:33;3.75;;;1.08;;
38463;SDS011;24243;51.956;5.902;2023-06-14T04:15:19;2.53;;;1.30;;
38463;SDS011;24243;51.956;5.902;2023-06-14T04:18:05;4.45;;;1.38;;
38463;SDS011;24243;51.956;5.902;2023-06-14T04:20:50;1.95;;;1.30;;
38463;SDS011;24243;51.956;5.902;2023-06-14T04:23:36;3.55;;;1.40;;
38463;SDS011;24243;51.956;5.902;2023-06-14T04:26:23;3.40;;;1.80;;
38463;SDS011;24243;51.956;5.902;2023-06-14T04:29:08;3.35;;;1.65;;
38463;SDS011;24243;51.956;5.902;2023-06-14T04:31:54;3.28;;;1.50;;
38463;SDS011;24243;51.956;5.902;2023-06-14T04:34:43;2.55;;;1.50;;
38463;SDS011;24243;51.956;5.902;2023-06-14T04:37:29;3.95;;;1.45;;
38463;SDS011;24243;51.956;5.902;2023-06-14T04:40:15;2.90;;;1.40;;
38463;SDS011;24243;51.956;5.902;2023-06-14T04:43:01;3.85;;;1.65;;
38463;SDS011;24243;51.956;5.902;2023-06-14T04:45:50;3.42;;;2.05;;
38463;SDS011;24243;51.956;5.902;2023-06-14T04:48:37;4.38;;;1.50;;
38463;SDS011;24243;51.956;5.902;2023-06-14T04:51:25;3.50;;;1.80;;
38463;SDS011;24243;51.956;5.902;2023-06-14T04:54:14;2.15;;;1.38;;
38463;SDS011;24243;51.956;5.902;2023-06-14T04:57:00;2.00;;;1.42;;
38463;SDS011;24243;51.956;5.902;2023-06-14T04:59:46;3.08;;;1.65;;
38463;SDS011;24243;51.956;5.902;2023-06-14T05:02:31;3.08;;;1.73;;
38463;SDS011;24243;51.956;5.902;2023-06-14T05:05:17;3.00;;;1.58;;
38463;SDS011;24243;51.956;5.902;2023-06-14T05:08:02;3.45;;;1.60;;
38463;SDS011;24243;51.956;5.902;2023-06-14T05:10:48;4.22;;;1.80;;
38463;SDS011;24243;51.956;5.902;2023-06-14T05:13:34;2.42;;;1.60;;
38463;SDS011;24243;51.956;5.902;2023-06-14T05:16:20;3.38;;;1.95;;
38463;SDS011;24243;51.956;5.902;2023-06-14T05:19:08;3.20;;;1.95;;
38463;SDS011;24243;51.956;5.902;2023-06-14T05:21:55;2.42;;;1.95;;
38463;SDS011;24243;51.956;5.902;2023-06-14T05:24:41;2.25;;;1.60;;
38463;SDS011;24243;51.956;5.902;2023-06-14T05:27:27;5.43;;;1.70;;
38463;SDS011;24243;51.956;5.902;2023-06-14T05:30:13;3.33;;;1.83;;
38463;SDS011;24243;51.956;5.902;2023-06-14T05:32:59;3.90;;;1.73;;
38463;SDS011;24243;51.956;5.902;2023-06-14T05:35:45;4.10;;;1.95;;
38463;SDS011;24243;51.956;5.902;2023-06-14T05:38:31;2.78;;;1.88;;
38463;SDS011;24243;51.956;5.902;2023-06-14T05:41:17;2.38;;;1.58;;
38463;SDS011;24243;51.956;5.902;2023-06-14T05:44:03;3.22;;;1.67;;
38463;SDS011;24243;51.956;5.902;2023-06-14T05:46:49;2.95;;;1.33;;
38463;SDS011;24243;51.956;5.902;2023-06-14T05:49:34;4.40;;;1.92;;
38463;SDS011;24243;51.956;5.902;2023-06-14T05:52:20;3.58;;;1.90;;
38463;SDS011;24243;51.956;5.902;2023-06-14T05:55:06;5.20;;;1.70;;
38463;SDS011;24243;51.956;5.902;2023-06-14T05:57:52;4.60;;;1.67;;
38463;SDS011;24243;51.956;5.902;2023-06-14T06:00:37;4.03;;;1.60;;
38463;SDS011;24243;51.956;5.902;2023-06-14T06:03:23;2.35;;;1.58;;
38463;SDS011;24243;51.956;5.902;2023-06-14T06:06:09;2.72;;;1.58;;
38463;SDS011;24243;51.956;5.902;2023-06-14T06:08:54;4.30;;;1.75;;
38463;SDS011;24243;51.956;5.902;2023-06-14T06:11:40;2.42;;;1.80;;
38463;SDS011;24243;51.956;5.902;2023-06-14T06:14:26;2.67;;;1.60;;
38463;SDS011;24243;51.956;5.902;2023-06-14T06:17:12;2.97;;;1.60;;
38463;SDS011;24243;51.956;5.902;2023-06-14T06:19:58;3.78;;;1.42;;
38463;SDS011;24243;51.956;5.902;2023-06-14T06:22:43;2.65;;;1.58;;
38463;SDS011;24243;51.956;5.902;2023-06-14T06:25:29;3.13;;;1.90;;
38463;SDS011;24243;51.956;5.902;2023-06-14T06:28:16;3.17;;;1.80;;
38463;SDS011;24243;51.956;5.902;2023-06-14T06:31:02;3.42;;;1.70;;
38463;SDS011;24243;51.956;5.902;2023-06-14T06:33:48;3.60;;;1.58;;
38463;SDS011;24243;51.956;5.902;2023-06-14T06:36:33;2.45;;;1.90;;
38463;SDS011;24243;51.956;5.902;2023-06-14T06:39:20;2.83;;;1.73;;
38463;SDS011;24243;51.956;5.902;2023-06-14T06:42:05;2.03;;;1.50;;
38463;SDS011;24243;51.956;5.902;2023-06-14T06:44:51;3.33;;;1.75;;
38463;SDS011;24243;51.956;5.902;2023-06-14T06:47:37;2.85;;;1.63;;
38463;SDS011;24243;51.956;5.902;2023-06-14T06:50:22;3.88;;;1.80;;
38463;SDS011;24243;51.956;5.902;2023-06-14T06:53:09;3.90;;;1.70;;
38463;SDS011;24243;51.956;5.902;2023-06-14T06:55:55;3.22;;;1.48;;
38463;SDS011;24243;51.956;5.902;2023-06-14T06:58:41;3.80;;;1.60;;
38463;SDS011;24243;51.956;5.902;2023-06-14T07:01:27;2.53;;;1.35;;
38463;SDS011;24243;51.956;5.902;2023-06-14T07:04:13;2.63;;;1.50;;
38463;SDS011;24243;51.956;5.902;2023-06-14T07:06:59;3.20;;;1.52;;
38463;SDS011;24243;51.956;5.902;2023-06-14T07:09:45;3.15;;;1.33;;
38463;SDS011;24243;51.956;5.902;2023-06-14T07:12:31;3.55;;;1.40;;
38463;SDS011;24243;51.956;5.902;2023-06-14T07:15:18;2.17;;;1.35;;
38463;SDS011;24243;51.956;5.902;2023-06-14T07:18:04;3.28;;;1.73;;
38463;SDS011;24243;51.956;5.902;2023-06-14T07:20:52;2.95;;;1.35;;
38463;SDS011;24243;51.956;5.902;2023-06-14T07:23:39;1.98;;;1.35;;
38463;SDS011;24243;51.956;5.902;2023-06-14T07:26:24;3.15;;;1.70;;
38463;SDS011;24243;51.956;5.902;2023-06-14T07:29:10;2.40;;;1.40;;
38463;SDS011;24243;51.956;5.902;2023-06-14T07:31:55;2.30;;;1.10;;
38463;SDS011;24243;51.956;5.902;2023-06-14T07:34:41;2.13;;;1.23;;
38463;SDS011;24243;51.956;5.902;2023-06-14T07:37:27;1.77;;;1.30;;
38463;SDS011;24243;51.956;5.902;2023-06-14T07:40:13;1.67;;;1.20;;
38463;SDS011;24243;51.956;5.902;2023-06-14T07:42:58;2.45;;;1.20;;
38463;SDS011;24243;51.956;5.902;2023-06-14T07:45:44;2.75;;;1.10;;
38463;SDS011;24243;51.956;5.902;2023-06-14T07:48:31;2.58;;;1.15;;
38463;SDS011;24243;51.956;5.902;2023-06-14T07:51:17;2.00;;;1.00;;
38463;SDS011;24243;51.956;5.902;2023-06-14T07:54:03;1.58;;;1.13;;
38463;SDS011;24243;51.956;5.902;2023-06-14T07:56:48;1.10;;;0.80;;
38463;SDS011;24243;51.956;5.902;2023-06-14T07:59:35;2.50;;;1.20;;
38463;SDS011;24243;51.956;5.902;2023-06-14T08:02:21;1.65;;;0.85;;
38463;SDS011;24243;51.956;5.902;2023-06-14T08:05:06;2.13;;;1.10;;
38463;SDS011;24243;51.956;5.902;2023-06-14T08:07:54;1.35;;;0.80;;
38463;SDS011;24243;51.956;5.902;2023-06-14T08:10:40;1.17;;;0.70;;
38463;SDS011;24243;51.956;5.902;2023-06-14T08:13:26;1.05;;;0.60;;
38463;SDS011;24243;51.956;5.902;2023-06-14T08:16:12;1.55;;;0.80;;
38463;SDS011;24243;51.956;5.902;2023-06-14T08:18:57;1.85;;;0.70;;
38463;SDS011;24243;51.956;5.902;2023-06-14T08:21:43;0.98;;;0.70;;
38463;SDS011;24243;51.956;5.902;2023-06-14T08:24:29;2.47;;;1.00;;
38463;SDS011;24243;51.956;5.902;2023-06-14T08:27:14;2.20;;;1.00;;
38463;SDS011;24243;51.956;5.902;2023-06-14T08:30:00;0.95;;;0.80;;
38463;SDS011;24243;51.956;5.902;2023-06-14T08:32:47;2.67;;;1.02;;
38463;SDS011;24243;51.956;5.902;2023-06-14T08:35:33;1.50;;;1.08;;
38463;SDS011;24243;51.956;5.902;2023-06-14T08:38:21;2.00;;;0.90;;
38463;SDS011;24243;51.956;5.902;2023-06-14T08:41:07;3.42;;;1.10;;
38463;SDS011;24243;51.956;5.902;2023-06-14T08:43:56;1.70;;;1.10;;
38463;SDS011;24243;51.956;5.902;2023-06-14T08:46:42;1.95;;;0.70;;
38463;SDS011;24243;51.956;5.902;2023-06-14T08:49:28;1.63;;;0.90;;
38463;SDS011;24243;51.956;5.902;2023-06-14T08:52:16;2.28;;;1.00;;
38463;SDS011;24243;51.956;5.902;2023-06-14T08:55:06;2.17;;;0.90;;
38463;SDS011;24243;51.956;5.902;2023-06-14T08:57:54;2.10;;;0.90;;
38463;SDS011;24243;51.956;5.902;2023-06-14T09:00:42;1.40;;;1.02;;
38463;SDS011;24243;51.956;5.902;2023-06-14T09:03:29;1.42;;;0.95;;
38463;SDS011;24243;51.956;5.902;2023-06-14T09:06:16;2.60;;;1.17;;
38463;SDS011;24243;51.956;5.902;2023-06-14T09:09:03;1.27;;;0.90;;
38463;SDS011;24243;51.956;5.902;2023-06-14T09:11:52;1.77;;;1.00;;
38463;SDS011;24243;51.956;5.902;2023-06-14T09:14:38;1.30;;;1.00;;
38463;SDS011;24243;51.956;5.902;2023-06-14T09:17:25;2.45;;;0.93;;
38463;SDS011;24243;51.956;5.902;2023-06-14T09:20:11;2.30;;;1.00;;
38463;SDS011;24243;51.956;5.902;2023-06-14T09:23:03;1.10;;;0.88;;
38463;SDS011;24243;51.956;5.902;2023-06-14T09:25:50;3.95;;;1.20;;
38463;SDS011;24243;51.956;5.902;2023-06-14T09:28:36;1.98;;;0.80;;
38463;SDS011;24243;51.956;5.902;2023-06-14T09:31:26;2.45;;;0.90;;
38463;SDS011;24243;51.956;5.902;2023-06-14T09:34:16;1.70;;;0.80;;
38463;SDS011;24243;51.956;5.902;2023-06-14T09:37:04;1.48;;;0.60;;
38463;SDS011;24243;51.956;5.902;2023-06-14T09:39:50;1.40;;;0.70;;
38463;SDS011;24243;51.956;5.902;2023-06-14T09:42:36;0.70;;;0.63;;
38463;SDS011;24243;51.956;5.902;2023-06-14T09:45:23;1.30;;;0.65;;
38463;SDS011;24243;51.956;5.902;2023-06-14T09:48:09;2.30;;;0.90;;
38463;SDS011;24243;51.956;5.902;2023-06-14T09:50:55;1.88;;;0.63;;
38463;SDS011;24243;51.956;5.902;2023-06-14T09:53:43;1.60;;;0.70;;
38463;SDS011;24243;51.956;5.902;2023-06-14T09:56:36;1.33;;;0.77;;
38463;SDS011;24243;51.956;5.902;2023-06-14T09:59:25;1.63;;;0.88;;
38463;SDS011;24243;51.956;5.902;2023-06-14T10:05:11;1.80;;;0.98;;
38463;SDS011;24243;51.956;5.902;2023-06-14T10:08:02;1.10;;;0.88;;
38463;SDS011;24243;51.956;5.902;2023-06-14T10:10:52;1.67;;;0.75;;
38463;SDS011;24243;51.956;5.902;2023-06-14T10:13:40;4.03;;;0.88;;
38463;SDS011;24243;51.956;5.902;2023-06-14T10:19:37;3.50;;;0.95;;
38463;SDS011;24243;51.956;5.902;2023-06-14T10:22:50;1.60;;;0.60;;
38463;SDS011;24243;51.956;5.902;2023-06-14T10:25:41;2.00;;;0.60;;
38463;SDS011;24243;51.956;5.902;2023-06-14T10:28:27;1.40;;;0.90;;
38463;SDS011;24243;51.956;5.902;2023-06-14T10:31:15;1.73;;;1.00;;
38463;SDS011;24243;51.956;5.902;2023-06-14T10:34:01;1.40;;;0.77;;
38463;SDS011;24243;51.956;5.902;2023-06-14T10:36:47;1.77;;;0.70;;
38463;SDS011;24243;51.956;5.902;2023-06-14T10:39:46;1.25;;;0.88;;
38463;SDS011;24243;51.956;5.902;2023-06-14T10:42:32;1.95;;;0.85;;
38463;SDS011;24243;51.956;5.902;2023-06-14T10:45:18;2.75;;;0.93;;
38463;SDS011;24243;51.956;5.902;2023-06-14T10:48:04;2.05;;;0.80;;
38463;SDS011;24243;51.956;5.902;2023-06-14T10:50:49;1.33;;;0.80;;
38463;SDS011;24243;51.956;5.902;2023-06-14T10:53:50;1.10;;;0.70;;
38463;SDS011;24243;51.956;5.902;2023-06-14T10:56:36;1.92;;;0.80;;
38463;SDS011;24243;51.956;5.902;2023-06-14T10:59:21;1.02;;;0.70;;
38463;SDS011;24243;51.956;5.902;2023-06-14T11:05:05;1.57;;;0.80;;
38463;SDS011;24243;51.956;5.902;2023-06-14T11:08:18;0.77;;;0.60;;
38463;SDS011;24243;51.956;5.902;2023-06-14T11:11:13;2.95;;;0.80;;
38463;SDS011;24243;51.956;5.902;2023-06-14T11:13:59;1.98;;;0.88;;
38463;SDS011;24243;51.956;5.902;2023-06-14T11:16:49;2.65;;;0.90;;
38463;SDS011;24243;51.956;5.902;2023-06-14T11:19:35;0.90;;;0.70;;
38463;SDS011;24243;51.956;5.902;2023-06-14T11:22:21;0.82;;;0.57;;
38463;SDS011;24243;51.956;5.902;2023-06-14T11:25:08;2.20;;;0.90;;
38463;SDS011;24243;51.956;5.902;2023-06-14T11:27:55;1.67;;;0.77;;
38463;SDS011;24243;51.956;5.902;2023-06-14T11:30:42;1.10;;;0.77;;
38463;SDS011;24243;51.956;5.902;2023-06-14T11:33:28;1.63;;;0.73;;
38463;SDS011;24243;51.956;5.902;2023-06-14T11:36:13;1.13;;;0.75;;
38463;SDS011;24243;51.956;5.902;2023-06-14T11:39:04;2.05;;;0.80;;
38463;SDS011;24243;51.956;5.902;2023-06-14T11:41:53;1.90;;;0.70;;
38463;SDS011;24243;51.956;5.902;2023-06-14T11:44:40;1.02;;;0.80;;
38463;SDS011;24243;51.956;5.902;2023-06-14T11:47:31;1.95;;;0.90;;
38463;SDS011;24243;51.956;5.902;2023-06-14T11:50:17;1.60;;;0.98;;
38463;SDS011;24243;51.956;5.902;2023-06-14T11:53:03;1.23;;;0.60;;
38463;SDS011;24243;51.956;5.902;2023-06-14T11:55:52;1.40;;;0.73;;
38463;SDS011;24243;51.956;5.902;2023-06-14T11:58:37;2.60;;;0.90;;
38463;SDS011;24243;51.956;5.902;2023-06-14T12:01:24;1.15;;;0.75;;
38463;SDS011;24243;51.956;5.902;2023-06-14T12:04:10;1.55;;;0.70;;
38463;SDS011;24243;51.956;5.902;2023-06-14T12:06:56;2.60;;;0.90;;
38463;SDS011;24243;51.956;5.902;2023-06-14T12:10:04;1.98;;;0.90;;
38463;SDS011;24243;51.956;5.902;2023-06-14T12:12:56;2.42;;;0.80;;
38463;SDS011;24243;51.956;5.902;2023-06-14T12:15:44;1.73;;;0.90;;
38463;SDS011;24243;51.956;5.902;2023-06-14T12:18:39;1.88;;;0.80;;
38463;SDS011;24243;51.956;5.902;2023-06-14T12:21:26;1.90;;;0.93;;
38463;SDS011;24243;51.956;5.902;2023-06-14T12:24:13;1.02;;;0.60;;
38463;SDS011;24243;51.956;5.902;2023-06-14T12:26:59;1.73;;;0.70;;
38463;SDS011;24243;51.956;5.902;2023-06-14T12:29:45;2.20;;;0.88;;
38463;SDS011;24243;51.956;5.902;2023-06-14T12:32:30;0.93;;;0.70;;
38463;SDS011;24243;51.956;5.902;2023-06-14T12:35:16;2.05;;;0.77;;
38463;SDS011;24243;51.956;5.902;2023-06-14T12:38:03;1.95;;;0.80;;
38463;SDS011;24243;51.956;5.902;2023-06-14T12:40:49;2.00;;;0.85;;
38463;SDS011;24243;51.956;5.902;2023-06-14T12:43:35;1.10;;;0.80;;
38463;SDS011;24243;51.956;5.902;2023-06-14T12:46:20;1.95;;;0.60;;
38463;SDS011;24243;51.956;5.902;2023-06-14T12:49:08;2.20;;;0.70;;
38463;SDS011;24243;51.956;5.902;2023-06-14T12:51:54;1.63;;;0.82;;
38463;SDS011;24243;51.956;5.902;2023-06-14T12:54:40;2.15;;;0.70;;
38463;SDS011;24243;51.956;5.902;2023-06-14T12:57:26;1.58;;;0.70;;
38463;SDS011;24243;51.956;5.902;2023-06-14T13:00:12;1.67;;;0.70;;
38463;SDS011;24243;51.956;5.902;2023-06-14T13:02:58;1.77;;;1.00;;
38463;SDS011;24243;51.956;5.902;2023-06-14T13:05:44;1.35;;;0.70;;
38463;SDS011;24243;51.956;5.902;2023-06-14T13:08:29;2.28;;;0.60;;
38463;SDS011;24243;51.956;5.902;2023-06-14T13:11:16;1.35;;;0.70;;
38463;SDS011;24243;51.956;5.902;2023-06-14T13:14:01;1.92;;;0.80;;
38463;SDS011;24243;51.956;5.902;2023-06-14T13:16:47;1.30;;;0.70;;
38463;SDS011;24243;51.956;5.902;2023-06-14T13:19:35;1.60;;;0.50;;
38463;SDS011;24243;51.956;5.902;2023-06-14T13:22:21;1.13;;;0.50;;
38463;SDS011;24243;51.956;5.902;2023-06-14T13:25:07;0.85;;;0.60;;
38463;SDS011;24243;51.956;5.902;2023-06-14T13:27:53;0.85;;;0.60;;
38463;SDS011;24243;51.956;5.902;2023-06-14T13:30:38;1.73;;;0.60;;
38463;SDS011;24243;51.956;5.902;2023-06-14T13:33:24;1.58;;;0.50;;
38463;SDS011;24243;51.956;5.902;2023-06-14T13:36:10;1.20;;;0.40;;
38463;SDS011;24243;51.956;5.902;2023-06-14T13:38:56;1.25;;;0.47;;
38463;SDS011;24243;51.956;5.902;2023-06-14T13:41:43;2.20;;;0.70;;
38463;SDS011;24243;51.956;5.902;2023-06-14T13:44:29;2.72;;;0.75;;
38463;SDS011;24243;51.956;5.902;2023-06-14T13:47:15;0.60;;;0.40;;
38463;SDS011;24243;51.956;5.902;2023-06-14T13:50:01;1.10;;;0.50;;
38463;SDS011;24243;51.956;5.902;2023-06-14T13:52:48;2.30;;;0.60;;
38463;SDS011;24243;51.956;5.902;2023-06-14T13:55:33;1.20;;;0.55;;
38463;SDS011;24243;51.956;5.902;2023-06-14T13:58:19;0.82;;;0.40;;
38463;SDS011;24243;51.956;5.902;2023-06-14T14:01:05;2.75;;;0.50;;
38463;SDS011;24243;51.956;5.902;2023-06-14T14:03:50;1.60;;;0.60;;
38463;SDS011;24243;51.956;5.902;2023-06-14T14:06:36;0.77;;;0.57;;
38463;SDS011;24243;51.956;5.902;2023-06-14T14:09:22;2.10;;;0.57;;
38463;SDS011;24243;51.956;5.902;2023-06-14T14:12:08;1.90;;;0.50;;
38463;SDS011;24243;51.956;5.902;2023-06-14T14:14:53;1.88;;;0.60;;
38463;SDS011;24243;51.956;5.902;2023-06-14T14:17:38;0.90;;;0.50;;
38463;SDS011;24243;51.956;5.902;2023-06-14T14:20:24;2.63;;;0.70;;
38463;SDS011;24243;51.956;5.902;2023-06-14T14:23:10;1.20;;;0.60;;
38463;SDS011;24243;51.956;5.902;2023-06-14T14:25:55;0.88;;;0.40;;
38463;SDS011;24243;51.956;5.902;2023-06-14T14:28:41;2.30;;;0.50;;
38463;SDS011;24243;51.956;5.902;2023-06-14T14:31:25;2.13;;;0.70;;
38463;SDS011;24243;51.956;5.902;2023-06-14T14:34:11;1.20;;;0.50;;
38463;SDS011;24243;51.956;5.902;2023-06-14T14:36:57;0.88;;;0.50;;
38463;SDS011;24243;51.956;5.902;2023-06-14T14:39:46;1.40;;;0.60;;
38463;SDS011;24243;51.956;5.902;2023-06-14T14:42:32;1.00;;;0.60;;
38463;SDS011;24243;51.956;5.902;2023-06-14T14:45:20;1.65;;;0.60;;
38463;SDS011;24243;51.956;5.902;2023-06-14T14:48:24;2.53;;;0.60;;
38463;SDS011;24243;51.956;5.902;2023-06-14T14:51:08;1.58;;;0.57;;
38463;SDS011;24243;51.956;5.902;2023-06-14T14:53:53;1.48;;;0.55;;
38463;SDS011;24243;51.956;5.902;2023-06-14T14:56:48;0.65;;;0.55;;
38463;SDS011;24243;51.956;5.902;2023-06-14T14:59:34;1.10;;;0.60;;
38463;SDS011;24243;51.956;5.902;2023-06-14T15:02:20;1.30;;;0.70;;
38463;SDS011;24243;51.956;5.902;2023-06-14T15:05:05;0.50;;;0.50;;
38463;SDS011;24243;51.956;5.902;2023-06-14T15:07:51;1.15;;;0.40;;
38463;SDS011;24243;51.956;5.902;2023-06-14T15:10:39;1.45;;;0.55;;
38463;SDS011;24243;51.956;5.902;2023-06-14T15:13:26;1.30;;;0.60;;
38463;SDS011;24243;51.956;5.902;2023-06-14T15:16:13;0.82;;;0.50;;
38463;SDS011;24243;51.956;5.902;2023-06-14T15:18:58;0.70;;;0.60;;
38463;SDS011;24243;51.956;5.902;2023-06-14T15:21:44;0.95;;;0.50;;
38463;SDS011;24243;51.956;5.902;2023-06-14T15:24:30;1.35;;;0.75;;
38463;SDS011;24243;51.956;5.902;2023-06-14T15:27:17;1.23;;;0.80;;
38463;SDS011;24243;51.956;5.902;2023-06-14T15:30:03;1.00;;;0.52;;
38463;SDS011;24243;51.956;5.902;2023-06-14T15:32:50;1.00;;;0.60;;
38463;SDS011;24243;51.956;5.902;2023-06-14T15:35:35;0.60;;;0.50;;
38463;SDS011;24243;51.956;5.902;2023-06-14T15:38:21;1.20;;;0.65;;
38463;SDS011;24243;51.956;5.902;2023-06-14T15:41:07;1.00;;;0.55;;
38463;SDS011;24243;51.956;5.902;2023-06-14T15:43:53;0.80;;;0.63;;
38463;SDS011;24243;51.956;5.902;2023-06-14T15:46:38;1.30;;;0.65;;
38463;SDS011;24243;51.956;5.902;2023-06-14T15:49:24;1.77;;;0.70;;
38463;SDS011;24243;51.956;5.902;2023-06-14T15:52:10;1.23;;;0.60;;
38463;SDS011;24243;51.956;5.902;2023-06-14T15:54:56;2.63;;;0.70;;
38463;SDS011;24243;51.956;5.902;2023-06-14T15:57:42;1.50;;;0.70;;
38463;SDS011;24243;51.956;5.902;2023-06-14T16:00:28;0.93;;;0.60;;
38463;SDS011;24243;51.956;5.902;2023-06-14T16:03:13;0.70;;;0.52;;
38463;SDS011;24243;51.956;5.902;2023-06-14T16:05:59;1.30;;;0.70;;
38463;SDS011;24243;51.956;5.902;2023-06-14T16:08:45;2.35;;;0.60;;
38463;SDS011;24243;51.956;5.902;2023-06-14T16:11:30;1.48;;;0.70;;
38463;SDS011;24243;51.956;5.902;2023-06-14T16:14:16;0.80;;;0.68;;
38463;SDS011;24243;51.956;5.902;2023-06-14T16:17:02;1.38;;;0.98;;
38463;SDS011;24243;51.956;5.902;2023-06-14T16:19:48;1.20;;;0.70;;
38463;SDS011;24243;51.956;5.902;2023-06-14T16:22:33;1.85;;;0.70;;
38463;SDS011;24243;51.956;5.902;2023-06-14T16:25:19;1.55;;;0.70;;
38463;SDS011;24243;51.956;5.902;2023-06-14T16:28:06;2.28;;;0.80;;
38463;SDS011;24243;51.956;5.902;2023-06-14T16:30:52;3.25;;;0.85;;
38463;SDS011;24243;51.956;5.902;2023-06-14T16:33:37;2.33;;;0.63;;
38463;SDS011;24243;51.956;5.902;2023-06-14T16:36:23;5.53;;;1.20;;
38463;SDS011;24243;51.956;5.902;2023-06-14T16:39:09;2.08;;;0.65;;
38463;SDS011;24243;51.956;5.902;2023-06-14T16:41:56;2.45;;;0.80;;
38463;SDS011;24243;51.956;5.902;2023-06-14T16:44:42;2.75;;;0.98;;
38463;SDS011;24243;51.956;5.902;2023-06-14T16:47:28;1.17;;;0.70;;
38463;SDS011;24243;51.956;5.902;2023-06-14T16:50:13;1.92;;;0.90;;
38463;SDS011;24243;51.956;5.902;2023-06-14T16:52:59;1.00;;;0.70;;
38463;SDS011;24243;51.956;5.902;2023-06-14T16:55:45;2.13;;;0.82;;
38463;SDS011;24243;51.956;5.902;2023-06-14T16:58:30;1.92;;;0.63;;
38463;SDS011;24243;51.956;5.902;2023-06-14T17:01:16;2.85;;;0.93;;